Aviation Digital Data Service (ADDS)

Output produced by METARs form (0701 UTC 24 March 2019)
found at http://www.aviationweather.gov/metar/data/
 
ELLX 240650Z 03010KT 3000 BR BKN009 06/04 Q1026 NOSIG
TAF ELLX 240500Z 2406/2512 04011KT 3000 BR FEW045 
     BECMG 2406/2408 9999 
     PROB30 
     TEMPO 2412/2416 5000 -SHRA 
     BECMG 2416/2418 33005KT 
     BECMG 2506/2508 BKN015 
     TEMPO 2510/2512 5000 SHRA BKN010